Data for 10/18/2013

Time Sea-Level Adjusted Pressure Absolute Pressure Temperature Relative Humidity Dew Point   
(mb) (inHg) (mb) (inHg) (C) (F) (%) (C) (F)
00:05 1025 30.27 854 25.22 0.9 33.5 74 -3.2 26.2
00:10 1025 30.27 854 25.22 0.6 33 75 -3.4 25.8
00:15 1025 30.27 854 25.22 0.6 33.1 74 -3.6 25.5
00:20 1025 30.27 854 25.22 0.6 33.1 75 -3.4 26
00:25 1025 30.27 854 25.22 0.4 32.8 75 -3.5 25.7
00:30 1025 30.27 854 25.22 0.4 32.7 75 -3.5 25.6
00:35 1025 30.27 854 25.22 0.4 32.8 73 -3.9 25
00:40 1025 30.27 854 25.22 0.7 33.2 73 -3.7 25.4
00:45 1025 30.27 854 25.22 0.5 32.9 73 -3.8 25.2
00:50 1025 30.27 854 25.22 0.5 32.9 71 -4.1 24.7
00:55 1025 30.27 854 25.22 0.6 33 73 -3.7 25.3
01:00 1025 30.27 854 25.22 0.5 32.8 73 -3.9 25
01:05 1025 30.27 854 25.22 0.6 33.1 72 -3.8 25.2
01:10 1025 30.27 854 25.22 0.7 33.2 72 -3.9 25
01:15 1025 30.27 854 25.22 0.7 33.2 72 -3.9 25
01:20 1025 30.27 854 25.22 0.9 33.6 70 -4 24.7
01:25 1025 30.27 854 25.22 1 33.8 69 -4 24.8
01:30 1025 30.27 854 25.22 1 33.8 70 -4 24.9
01:35 1025 30.27 854 25.22 0.9 33.7 72 -3.6 25.5
01:40 1025 30.27 854 25.22 0.7 33.3 71 -4 24.8
01:45 1025 30.27 854 25.22 0.7 33.3 70 -4.1 24.6
01:50 1025 30.27 854 25.22 0.7 33.2 71 -4 24.8
01:55 1025 30.27 854 25.22 0.6 33.1 71 -4.1 24.6
02:00 1025 30.27 854 25.22 0.5 32.9 73 -3.8 25.1
02:05 1025 30.27 854 25.22 0.5 32.9 72 -3.9 24.9
02:10 1025 30.27 854 25.22 0.5 32.9 74 -3.7 25.4
02:15 1025 30.27 854 25.22 0.4 32.7 77 -3.2 26.3
02:20 1025 30.27 854 25.22 0.2 32.3 78 -3.3 26.1
02:25 1025 30.27 854 25.22 0.1 32.2 78 -3.2 26.3
02:30 1025 30.27 854 25.22 0.2 32.3 74 -3.9 24.9
02:35 1025 30.27 854 25.22 0.4 32.8 69 -4.6 23.7
02:40 1025 30.27 854 25.22 1.1 33.9 66 -4.6 23.8
02:45 1025 30.27 854 25.22 1.1 34 74 -3 26.5
02:50 1025 30.27 854 25.22 0.7 33.2 74 -3.3 26
02:55 1025 30.27 854 25.22 0.5 32.9 74 -3.6 25.6
03:00 1025 30.27 854 25.22 0.4 32.8 77 -3.2 26.3
03:05 1025 30.27 854 25.22 0.3 32.5 76 -3.4 25.9
03:10 1025 30.27 854 25.22 0.3 32.6 78 -3.1 26.4
03:15 1025 30.27 854 25.22 0.2 32.4 80 -2.8 27
03:20 1025 30.27 854 25.22 0 32.1 79 -3.1 26.4
03:25 1025 30.27 854 25.22 0.1 32.1 79 -3.2 26.2
03:30 1025 30.27 854 25.22 0 32.1 79 -3.2 26.2
03:35 1025 30.27 854 25.22 0.1 32.1 78 -3.3 26
03:40 1025 30.27 854 25.22 0.2 32.4 75 -3.6 25.5
03:45 1025 30.27 854 25.22 0.3 32.6 75 -3.6 25.5
03:50 1025 30.27 854 25.22 0.3 32.6 75 -3.6 25.5
03:55 1025 30.27 854 25.22 0.3 32.5 74 -3.8 25.2
04:00 1025 30.27 854 25.22 0.2 32.4 75 -3.7 25.4
04:05 1025 30.27 854 25.22 0.2 32.4 75 -3.8 25.2
04:10 1025 30.27 854 25.22 0.1 32.2 78 -3.3 26
04:15 1025 30.27 854 25.22 -0.1 31.8 78 -3.5 25.8
04:20 1025 30.27 854 25.22 -0.2 31.7 77 -3.7 25.4
04:25 1025 30.27 854 25.22 -0.1 31.9 76 -3.8 25.2
04:30 1025 30.27 854 25.22 -0 32 76 -3.8 25.2
04:35 1025 30.27 854 25.22 -0.1 31.8 76 -3.9 25
04:40 1025 30.27 854 25.22 0.2 32.3 73 -4.1 24.7
04:45 1025 30.27 854 25.22 0.2 32.4 74 -3.9 24.9
04:50 1025 30.27 854 25.22 0.2 32.4 74 -3.9 25
04:55 1025 30.27 854 25.22 0.1 32.2 74 -3.9 25
05:00 1025 30.27 854 25.22 0 32.1 74 -4.1 24.7
05:05 1025 30.27 854 25.22 0.1 32.2 74 -3.9 25
05:10 1025 30.27 854 25.22 0.2 32.3 76 -3.6 25.5
05:15 1025 30.27 854 25.22 0.1 32.1 74 -4 24.9
05:20 1025 30.27 854 25.22 0.1 32.2 74 -4 24.8
05:25 1025 30.27 854 25.22 -0.1 31.9 77 -3.6 25.6
05:30 1025 30.27 854 25.22 -0.4 31.2 81 -3.4 26
05:35 1025 30.27 854 25.22 -0.7 30.8 80 -3.7 25.3
05:40 1025 30.27 854 25.22 -0.3 31.4 78 -3.7 25.3
05:45 1025 30.27 854 25.22 -0.3 31.5 79 -3.4 25.8
05:50 1025 30.27 854 25.22 -0.4 31.3 79 -3.6 25.6
05:55 1025 30.27 854 25.22 -0.3 31.4 79 -3.5 25.7
06:00 1025 30.27 854 25.22 -0.3 31.5 80 -3.3 26
06:05 1025 30.27 854 25.22 -0.4 31.3 81 -3.2 26.2
06:10 1025 30.27 854 25.22 -0.5 31.1 81 -3.3 26
06:15 1025 30.27 854 25.22 -0.5 31.1 82 -3.3 26.1
06:20 1025 30.27 854 25.22 -0.5 31.1 81 -3.3 26.1
06:25 1025 30.27 854 25.22 -0.5 31.1 81 -3.4 26
06:30 1025 30.27 854 25.22 -0.5 31.1 81 -3.4 26
06:35 1025 30.27 854 25.22 -0.5 31.2 80 -3.6 25.6
06:40 1025 30.27 854 25.22 -0.3 31.4 80 -3.4 25.8
06:45 1025 30.27 854 25.22 -0.4 31.2 81 -3.3 26
06:50 1025 30.27 854 25.22 -0.5 31.1 80 -3.5 25.8
06:55 1025 30.27 854 25.22 -0.4 31.3 78 -3.7 25.3
07:00 1025 30.27 854 25.22 -0.3 31.5 78 -3.7 25.3
07:05 1025 30.27 854 25.22 -0.2 31.6 79 -3.5 25.8
07:10 1025 30.27 854 25.22 -0.3 31.5 79 -3.5 25.7
07:15 1025 30.27 854 25.22 -0.3 31.5 79 -3.5 25.7
07:20 1025 30.27 854 25.22 -0.3 31.5 80 -3.4 25.9
07:25 1025 30.27 854 25.22 -0.3 31.4 77 -3.9 24.9
07:30 1025 30.27 854 25.22 -0.1 31.9 76 -3.7 25.3
07:35 1025 30.27 854 25.22 0.1 32.3 74 -4 24.9
07:40 1025 30.27 854 25.22 0.4 32.6 72 -4.1 24.6
07:45 1025 30.27 854 25.22 0.4 32.7 74 -3.7 25.3
07:50 1025 30.27 854 25.22 0.3 32.6 75 -3.6 25.6
07:55 1025 30.27 854 25.22 0.3 32.5 76 -3.4 25.8
08:00 1025 30.27 854 25.22 0.4 32.7 79 -2.9 26.8
08:05 1025 30.27 854 25.22 0.4 32.7 79 -2.9 26.8
08:10 1025 30.27 854 25.22 0.3 32.6 79 -2.9 26.9
08:15 1025 30.27 854 25.22 0.3 32.6 79 -2.9 26.8
08:20 1025 30.27 854 25.22 0.4 32.7 79 -2.9 26.8
08:25 1025 30.27 854 25.22 0.6 33 77 -2.9 26.7
08:30 1025 30.27 854 25.22 0.8 33.5 78 -2.6 27.3
08:35 1025 30.27 854 25.22 1 33.9 77 -2.6 27.3
08:40 1025 30.27 854 25.22 1.4 34.5 73 -2.9 26.8
08:45 1025 30.27 854 25.22 2 35.7 68 -3.2 26.3
08:50 1025 30.27 854 25.22 3.2 37.7 64 -3 26.6
08:55 1025 30.27 854 25.22 4.1 39.4 58 -3.4 25.9
09:00 1025 30.27 854 25.22 4.7 40.4 56 -3.5 25.8
09:05 1025 30.27 854 25.22 4.8 40.6 52 -4.3 24.3
09:10 1025 30.27 854 25.22 4.9 40.8 51 -4.3 24.3
09:15 1025 30.27 854 25.22 5 40.9 54 -3.5 25.6
09:20 1025 30.27 854 25.22 5 40.9 54 -3.6 25.5
09:25 1025 30.27 854 25.22 5.4 41.7 55 -2.9 26.8
09:30 1025 30.27 854 25.22 5.6 42.1 53 -3.3 26
09:35 1025 30.27 854 25.22 5.8 42.4 53 -3.1 26.3
09:40 1025 30.27 854 25.22 5.3 41.5 51 -4 24.8
09:45 1025 30.27 854 25.22 5.1 41.3 58 -2.4 27.7
09:50 1025 30.27 854 25.22 5.2 41.4 53 -3.5 25.8
09:55 1025 30.27 854 25.22 5 40.9 55 -3.4 25.9
10:00 1025 30.27 854 25.22 4.5 40.1 56 -3.6 25.5
10:05 1025 30.27 854 25.22 4.8 40.6 53 -4 24.8
10:10 1025 30.27 854 25.22 5 40.9 50 -4.6 23.7
10:15 1025 30.27 854 25.22 5.8 42.5 52 -3.2 26.3
10:20 1025 30.27 854 25.22 6.1 42.9 50 -3.5 25.8
10:25 1025 30.27 854 25.22 6.3 43.4 48 -3.7 25.3
10:30 1024 30.24 854 25.22 6.5 43.8 47 -3.9 24.9
10:35 1024 30.24 854 25.22 7.2 44.9 46 -3.6 25.6
10:40 1024 30.24 854 25.22 7.6 45.8 44 -3.9 25
10:45 1024 30.24 854 25.22 7.6 45.6 44 -3.9 24.9
10:50 1024 30.24 853 25.19 7.9 46.2 43 -3.8 25.1
10:55 1024 30.24 853 25.19 8 46.3 44 -3.7 25.4
11:00 1024 30.24 853 25.19 7.9 46.2 41 -4.4 24
11:05 1024 30.24 853 25.19 8.5 47.4 40 -4.4 24.1
11:10 1024 30.24 853 25.19 8.7 47.6 39 -4.4 24.1
11:15 1024 30.24 853 25.19 8.9 48 39 -4.4 24.1
11:20 1024 30.24 853 25.19 8.7 47.7 38 -4.7 23.6
11:25 1024 30.24 853 25.19 8.5 47.3 39 -4.8 23.4
11:30 1024 30.24 853 25.19 8.6 47.4 36 -5.7 21.8
11:35 1024 30.24 853 25.19 8.7 47.7 37 -5.2 22.6
11:40 1024 30.24 853 25.19 8.9 47.9 36 -5.4 22.2
11:45 1024 30.24 853 25.19 9.3 48.7 34 -5.8 21.6
11:50 1024 30.24 853 25.19 9.4 48.9 35 -5.4 22.3
11:55 1024 30.24 853 25.19 8.5 47.3 36 -5.8 21.5
12:00 1024 30.24 853 25.19 9 48.2 35 -5.8 21.6
12:05 1024 30.24 853 25.19 9.6 49.3 34 -5.4 22.2
12:10 1024 30.24 853 25.19 9.6 49.3 33 -6 21.2
12:15 1024 30.24 853 25.19 9.6 49.3 34 -5.6 21.9
12:20 1023 30.21 853 25.19 9.6 49.2 34 -5.6 22
12:25 1023 30.21 853 25.19 9.4 49 34 -5.6 22
12:30 1023 30.21 852 25.16 10.2 50.4 32 -5.7 21.8
12:35 1023 30.21 852 25.16 10.3 50.6 32 -5.4 22.2
12:40 1023 30.21 852 25.16 10.1 50.1 32 -5.9 21.4
12:45 1023 30.21 852 25.16 9.9 49.8 33 -5.7 21.7
12:50 1023 30.21 852 25.16 9.8 49.7 32 -6.2 20.9
12:55 1023 30.21 852 25.16 10.3 50.6 31 -5.9 21.4
13:00 1023 30.21 852 25.16 10.2 50.4 32 -5.8 21.6
13:05 1023 30.21 852 25.16 10.3 50.5 32 -5.8 21.6
13:10 1023 30.21 852 25.16 10.5 50.9 32 -5.7 21.8
13:15 1023 30.21 852 25.16 10.2 50.4 32 -5.5 22.1
13:20 1023 30.21 852 25.16 10.4 50.8 32 -5.5 22.1
13:25 1023 30.21 852 25.16 10.2 50.4 33 -5.2 22.7
13:30 1023 30.21 852 25.16 9.5 49 33 -5.8 21.6
13:35 1023 30.21 852 25.16 10.2 50.4 32 -5.8 21.5
13:40 1023 30.21 852 25.16 10.3 50.6 32 -5.8 21.5
13:45 1023 30.21 852 25.16 9.9 49.9 32 -6.1 21.1
13:50 1022 30.18 852 25.16 10.3 50.6 32 -5.6 21.9
13:55 1022 30.18 852 25.16 10.6 51.2 30 -6 21.2
14:00 1022 30.18 852 25.16 10.6 51.2 32 -5.5 22.2
14:05 1022 30.18 852 25.16 10.9 51.7 31 -5.4 22.3
14:10 1022 30.18 851 25.13 11 51.8 31 -5.6 21.9
14:15 1022 30.18 851 25.13 11.1 52.1 30 -5.6 21.9
14:20 1022 30.18 851 25.13 11.4 52.5 28 -6.3 20.7
14:25 1022 30.18 851 25.13 11 51.9 30 -5.8 21.6
14:30 1022 30.18 851 25.13 11.1 52 29 -6 21.2
14:35 1022 30.18 851 25.13 11.4 52.6 28 -6.2 20.9
14:40 1022 30.18 851 25.13 11.3 52.3 29 -5.9 21.3
14:45 1022 30.18 851 25.13 11.2 52.1 29 -6.3 20.6
14:50 1022 30.18 851 25.13 11.2 52.1 29 -6.1 21
14:55 1022 30.18 851 25.13 10.9 51.6 31 -5.6 22
15:00 1022 30.18 851 25.13 10.9 51.6 29 -6.3 20.7
15:05 1022 30.18 851 25.13 11.4 52.5 29 -5.9 21.5
15:10 1022 30.18 851 25.13 11.5 52.8 29 -5.7 21.7
15:15 1022 30.18 851 25.13 11.1 52 29 -6.3 20.7
15:20 1022 30.18 851 25.13 11.3 52.4 29 -5.9 21.4
15:25 1022 30.18 851 25.13 11.3 52.4 30 -5.7 21.8
15:30 1022 30.18 851 25.13 11.4 52.5 30 -5.6 21.9
15:35 1022 30.18 851 25.13 11.4 52.4 29 -5.8 21.5
15:40 1022 30.18 851 25.13 11.1 52 31 -5.5 22.1
15:45 1022 30.18 851 25.13 10.6 51.1 34 -4.7 23.5
15:50 1022 30.18 851 25.13 9.8 49.6 32 -6.1 21.1
15:55 1021 30.15 851 25.13 10.2 50.3 32 -5.9 21.4
16:00 1021 30.15 851 25.13 10.7 51.3 30 -5.9 21.3
16:05 1021 30.15 850 25.1 11.1 52 30 -5.9 21.4
16:10 1021 30.15 850 25.1 11.3 52.4 30 -5.7 21.7
16:15 1021 30.15 850 25.1 11.4 52.6 30 -5.6 21.9
16:20 1021 30.15 850 25.1 11.5 52.8 30 -5.2 22.6
16:25 1021 30.15 850 25.1 11.4 52.6 30 -5.6 22
16:30 1021 30.15 850 25.1 10.9 51.6 30 -6.1 21
16:35 1021 30.15 850 25.1 10.9 51.6 31 -5.7 21.8
16:40 1021 30.15 850 25.1 10.1 50.1 32 -5.7 21.7
16:45 1021 30.15 850 25.1 10.1 50.1 32 -6 21.3
16:50 1021 30.15 850 25.1 10.6 51.1 31 -5.7 21.7
16:55 1021 30.15 850 25.1 10.4 50.8 33 -5.3 22.4
17:00 1021 30.15 850 25.1 9.9 49.9 35 -4.7 23.5
17:05 1021 30.15 850 25.1 9.6 49.2 34 -5.6 22
17:10 1021 30.15 850 25.1 9.3 48.7 35 -5.5 22.1
17:15 1021 30.15 850 25.1 9 48.1 36 -5.4 22.3
17:20 1021 30.15 850 25.1 8.8 47.8 36 -5.3 22.5
17:25 1021 30.15 850 25.1 8.6 47.4 37 -5.2 22.6
17:30 1021 30.15 850 25.1 8.2 46.8 38 -5.2 22.7
17:35 1021 30.15 850 25.1 8 46.5 37 -5.6 21.9
17:40 1021 30.15 850 25.1 7.9 46.3 40 -4.9 23.2
17:45 1021 30.15 850 25.1 7.6 45.6 45 -3.7 25.4
17:50 1021 30.15 850 25.1 7 44.5 47 -3.5 25.6
17:55 1021 30.15 850 25.1 6.5 43.8 49 -3.3 26
18:00 1021 30.15 850 25.1 6.2 43.1 50 -3.6 25.6
18:05 1021 30.15 850 25.1 6 42.8 50 -3.6 25.5
18:10 1021 30.15 850 25.1 5.8 42.4 51 -3.5 25.7
18:15 1021 30.15 850 25.1 5.3 41.6 54 -3.2 26.3
18:20 1021 30.15 850 25.1 4.7 40.5 56 -3.3 26.1
18:25 1021 30.15 850 25.1 4.6 40.2 56 -3.4 25.8
18:30 1021 30.15 850 25.1 4.8 40.6 56 -3.4 25.9
18:35 1021 30.15 850 25.1 4.7 40.5 55 -3.5 25.7
18:40 1021 30.15 850 25.1 4.6 40.3 56 -3.4 26
18:45 1021 30.15 850 25.1 4.4 39.9 55 -3.8 25.1
18:50 1020 30.12 850 25.1 4.5 40.1 54 -3.9 24.9
18:55 1021 30.15 850 25.1 4.5 40 57 -3.4 25.9
19:00 1020 30.12 850 25.1 4 39.1 59 -3.3 26.1
19:05 1020 30.12 850 25.1 3.6 38.6 60 -3.5 25.7
19:10 1020 30.12 850 25.1 3.5 38.3 59 -3.7 25.4
19:15 1020 30.12 850 25.1 3.2 37.8 61 -3.6 25.6
19:20 1020 30.12 850 25.1 3 37.4 61 -3.7 25.4
19:25 1020 30.12 850 25.1 3 37.5 62 -3.6 25.5
19:30 1020 30.12 850 25.1 3.2 37.8 60 -3.9 25
19:35 1020 30.12 850 25.1 3.4 38.1 60 -3.7 25.4
19:40 1020 30.12 850 25.1 3.3 38 59 -3.9 25.1
19:45 1020 30.12 850 25.1 3.3 37.9 59 -3.9 24.9
19:50 1020 30.12 850 25.1 3.4 38.1 59 -3.9 25
19:55 1020 30.12 850 25.1 3.1 37.7 60 -3.9 25
20:00 1020 30.12 850 25.1 2.9 37.1 60 -4.1 24.6
20:05 1020 30.12 850 25.1 2.8 37 58 -4.5 23.8
20:10 1020 30.12 850 25.1 3.1 37.6 57 -4.6 23.7
20:15 1020 30.12 850 25.1 3.4 38.1 54 -5 23.1
20:20 1020 30.12 850 25.1 3.7 38.7 54 -4.6 23.6
20:25 1020 30.12 850 25.1 4 39.2 51 -5.3 22.5
20:30 1020 30.12 850 25.1 4.5 40.1 52 -4.6 23.7
20:35 1020 30.12 850 25.1 4.5 40.1 50 -5 23
20:40 1020 30.12 850 25.1 4.4 40 51 -4.7 23.6
20:45 1020 30.12 850 25.1 4.3 39.8 51 -5 23.1
20:50 1020 30.12 850 25.1 4.2 39.6 51 -4.9 23.1
20:55 1021 30.15 850 25.1 4.2 39.5 51 -5 23
21:00 1020 30.12 850 25.1 4.2 39.5 52 -4.8 23.3
21:05 1020 30.12 850 25.1 4.3 39.7 51 -4.9 23.2
21:10 1020 30.12 850 25.1 4.2 39.6 51 -4.9 23.2
21:15 1021 30.15 850 25.1 4.5 40 50 -5.2 22.7
21:20 1021 30.15 850 25.1 4.7 40.4 49 -5.1 22.8
21:25 1021 30.15 850 25.1 4.6 40.3 51 -4.8 23.4
21:30 1021 30.15 850 25.1 4.5 40.2 49 -5.2 22.6
21:35 1020 30.12 850 25.1 4.7 40.4 49 -5 22.9
21:40 1020 30.12 850 25.1 4.4 39.8 52 -4.7 23.5
21:45 1020 30.12 850 25.1 4 39.3 53 -4.6 23.7
21:50 1020 30.12 850 25.1 3.8 38.8 55 -4.4 24.1
21:55 1020 30.12 850 25.1 3.4 38.1 58 -4.1 24.6
22:00 1020 30.12 850 25.1 3.5 38.2 55 -4.6 23.7
22:05 1020 30.12 850 25.1 3.5 38.4 55 -4.6 23.7
22:10 1020 30.12 850 25.1 3.3 38 56 -4.7 23.6
22:15 1020 30.12 850 25.1 3.2 37.8 56 -4.8 23.3
22:20 1020 30.12 850 25.1 3.5 38.3 56 -4.4 24
22:25 1020 30.12 849 25.07 3.7 38.7 54 -4.9 23.3
22:30 1020 30.12 849 25.07 4 39.2 54 -4.5 23.9
22:35 1020 30.12 849 25.07 3.8 38.9 54 -4.7 23.5
22:40 1020 30.12 849 25.07 3.7 38.7 56 -4.2 24.4
22:45 1020 30.12 849 25.07 3.5 38.3 57 -4.2 24.4
22:50 1020 30.12 849 25.07 3.3 38 56 -4.6 23.7
22:55 1020 30.12 849 25.07 3.5 38.4 56 -4.5 23.9
23:00 1020 30.12 849 25.07 3.6 38.5 56 -4.3 24.2
23:05 1020 30.12 849 25.07 3.4 38.1 57 -4.3 24.3
23:10 1020 30.12 849 25.07 3.3 37.9 57 -4.5 23.9
23:15 1020 30.12 849 25.07 3.2 37.8 57 -4.5 24
23:20 1020 30.12 849 25.07 3.1 37.5 58 -4.4 24
23:25 1020 30.12 849 25.07 3 37.4 57 -4.6 23.7
23:30 1020 30.12 849 25.07 3.1 37.5 57 -4.6 23.8
23:35 1020 30.12 849 25.07 3.2 37.7 55 -4.9 23.2
23:40 1020 30.12 849 25.07 3.3 38 56 -4.6 23.8
23:45 1020 30.12 849 25.07 3.2 37.8 56 -4.7 23.5
23:50 1020 30.12 849 25.07 3.1 37.7 56 -4.9 23.3
23:55 1020 30.12 849 25.07 3.3 37.9 55 -4.9 23.2
24:00 1020 30.12 849 25.07 3.2 37.8 57 -4.5 23.9